Time;durP1;ratioP1;P1;durP2;ratioP2;P2;SDS_P1;SDS_P2;PMS_P1;PMS_P2;Temp;Humidity;BMP_temperature;BMP_pressure;BME280_temperature;BME280_humidity;BME280_pressure;Samples;Min_cycle;Max_cycle;Signal;HPM_P1;HPM_P2
2022/06/03 00:03:02;;;;;;;1.75;1.35;;;20.90;53.80;;;;;;5054483;28;20461;-59
2022/06/03 00:06:05;;;;;;;1.30;1.20;;;20.90;53.70;;;;;;5055013;28;20040;-59
2022/06/03 00:08:52;;;;;;;1.35;1.20;;;20.90;53.70;;;;;;5053763;28;20500;-59
2022/06/03 00:11:36;;;;;;;1.60;1.40;;;20.90;53.60;;;;;;5054418;28;20102;-60
2022/06/03 00:14:10;;;;;;;2.42;1.42;;;20.90;53.60;;;;;;5053445;28;20041;-59
2022/06/03 00:17:06;;;;;;;1.23;1.13;;;20.90;53.60;;;;;;5055828;28;20731;-60
2022/06/03 00:20:09;;;;;;;1.23;1.10;;;20.90;53.50;;;;;;5053965;28;20059;-59
2022/06/03 00:22:44;;;;;;;1.08;0.90;;;20.90;53.50;;;;;;5053810;28;20045;-61
2022/06/03 00:25:29;;;;;;;1.38;1.13;;;20.90;53.60;;;;;;5054653;28;20043;-59
2022/06/03 00:28:11;;;;;;;1.30;1.20;;;20.90;53.50;;;;;;5053794;28;20121;-59
2022/06/03 00:31:09;;;;;;;1.13;0.93;;;20.90;53.40;;;;;;5054824;28;20033;-59
2022/06/03 00:34:14;;;;;;;1.20;1.05;;;20.90;53.30;;;;;;5053438;28;20057;-60
2022/06/03 00:36:53;;;;;;;1.25;1.10;;;20.90;53.40;;;;;;4991577;28;20088;-59
2022/06/03 00:39:29;;;;;;;1.50;1.10;;;20.90;53.30;;;;;;4995777;28;20030;-60
2022/06/03 00:41:54;;;;;;;1.23;1.10;;;20.90;53.30;;;;;;5031781;28;20157;-59
2022/06/03 00:44:47;;;;;;;1.40;0.95;;;20.90;53.20;;;;;;5053134;28;20129;-60
2022/06/03 00:47:28;;;;;;;1.40;1.10;;;20.90;53.10;;;;;;5054613;28;20040;-60
2022/06/03 00:50:36;;;;;;;1.77;1.00;;;20.80;53.10;;;;;;5052845;28;20045;-59
2022/06/03 00:53:27;;;;;;;1.15;1.05;;;20.80;53.00;;;;;;5053393;28;20044;-60
2022/06/03 00:56:01;;;;;;;1.33;1.17;;;20.80;53.00;;;;;;5055354;28;20037;-60
2022/06/03 00:58:45;;;;;;;1.50;1.00;;;20.80;53.00;;;;;;5058004;28;20182;-60
2022/06/03 01:01:18;;;;;;;1.33;1.00;;;20.80;52.90;;;;;;5053543;28;20111;-59
2022/06/03 01:04:14;;;;;;;1.23;1.10;;;20.80;53.00;;;;;;5052713;28;20392;-59
2022/06/03 01:06:59;;;;;;;1.35;0.98;;;20.80;52.80;;;;;;5050816;28;20033;-59
2022/06/03 01:09:50;;;;;;;1.00;1.00;;;20.80;52.90;;;;;;5055821;28;20369;-60
2022/06/03 01:12:21;;;;;;;1.52;1.30;;;20.80;52.70;;;;;;5052462;28;20074;-60
2022/06/03 01:15:16;;;;;;;1.42;1.00;;;20.80;52.80;;;;;;5055616;28;20090;-60
2022/06/03 01:17:56;;;;;;;1.67;1.13;;;20.80;52.70;;;;;;5052374;28;20396;-59
2022/06/03 01:20:45;;;;;;;1.23;1.02;;;20.80;52.70;;;;;;5053583;28;20917;-60
2022/06/03 01:23:37;;;;;;;1.10;1.00;;;20.80;52.60;;;;;;5054030;28;20696;-61
2022/06/03 01:26:26;;;;;;;1.15;0.90;;;20.80;52.50;;;;;;5052434;28;20044;-59
2022/06/03 01:29:10;;;;;;;1.42;1.00;;;20.80;52.50;;;;;;5053333;28;20051;-61
2022/06/03 01:32:07;;;;;;;1.25;1.08;;;20.80;52.60;;;;;;5054612;28;20040;-61
2022/06/03 01:34:53;;;;;;;1.45;0.93;;;20.80;52.40;;;;;;5052347;28;20572;-59
2022/06/03 01:37:49;;;;;;;1.08;0.98;;;20.80;52.30;;;;;;5053661;28;20037;-61
2022/06/03 01:40:18;;;;;;;1.55;1.25;;;20.80;52.20;;;;;;5054029;28;20052;-59
2022/06/03 01:43:08;;;;;;;1.38;1.00;;;20.80;52.40;;;;;;5056526;28;20114;-59
2022/06/03 01:45:59;;;;;;;1.23;0.90;;;20.80;52.20;;;;;;5051836;28;20392;-58
2022/06/03 01:48:34;;;;;;;1.15;0.80;;;20.80;52.20;;;;;;5052717;28;20044;-59
2022/06/03 01:51:20;;;;;;;1.10;0.90;;;20.80;52.30;;;;;;5053674;28;20056;-58
2022/06/03 01:54:23;;;;;;;1.13;1.02;;;20.80;52.20;;;;;;5052854;28;20051;-59
2022/06/03 01:57:10;;;;;;;1.48;0.90;;;20.80;52.10;;;;;;5051679;28;20105;-63
2022/06/03 01:59:50;;;;;;;1.02;0.93;;;20.80;52.20;;;;;;5055454;28;20116;-59
2022/06/03 02:02:47;;;;;;;0.90;0.90;;;20.80;52.10;;;;;;5048255;28;20033;-59
2022/06/03 02:05:41;;;;;;;2.25;1.13;;;20.80;52.10;;;;;;5050963;28;20126;-59
2022/06/03 02:08:10;;;;;;;1.10;0.95;;;20.80;52.00;;;;;;5050456;28;20040;-62
2022/06/03 02:10:54;;;;;;;1.10;1.00;;;20.80;52.10;;;;;;5053467;28;20520;-60
2022/06/03 02:13:44;;;;;;;1.80;0.98;;;20.80;51.90;;;;;;5055198;28;20102;-59
2022/06/03 02:16:46;;;;;;;1.70;0.88;;;20.80;51.90;;;;;;5054770;28;20044;-60
2022/06/03 02:19:20;;;;;;;1.02;0.90;;;20.80;51.90;;;;;;5045526;28;20408;-59
2022/06/03 02:22:04;;;;;;;1.25;1.13;;;20.80;52.00;;;;;;5061021;28;20055;-60
2022/06/03 02:24:39;;;;;;;1.35;0.98;;;20.80;51.80;;;;;;5058147;28;20382;-59
2022/06/03 02:27:33;;;;;;;1.17;1.00;;;20.80;51.90;;;;;;5038683;28;20093;-58
2022/06/03 02:30:26;;;;;;;1.10;0.90;;;20.80;51.80;;;;;;5055268;28;20090;-61
2022/06/03 02:33:16;;;;;;;0.65;0.65;;;20.70;51.80;;;;;;5053950;28;20126;-60
2022/06/03 02:35:52;;;;;;;1.10;1.10;;;20.70;51.70;;;;;;5054934;28;20071;-63
2022/06/03 02:38:42;;;;;;;1.38;1.10;;;20.70;51.80;;;;;;5056005;28;20389;-59
2022/06/03 02:41:52;;;;;;;1.75;1.15;;;20.70;51.60;;;;;;5056542;28;20120;-59
2022/06/03 02:44:20;;;;;;;0.82;0.82;;;20.70;51.70;;;;;;5055441;28;20477;-60
2022/06/03 02:47:24;;;;;;;1.00;1.00;;;20.70;51.80;;;;;;5054513;28;20089;-59
2022/06/03 02:50:04;;;;;;;1.67;1.00;;;20.70;51.70;;;;;;5056509;28;20147;-59
2022/06/03 02:53:01;;;;;;;0.98;0.93;;;20.70;51.80;;;;;;5055280;28;20298;-60
2022/06/03 02:55:30;;;;;;;1.05;0.90;;;20.70;51.60;;;;;;5058020;28;20040;-61
2022/06/03 02:58:30;;;;;;;1.35;0.95;;;20.70;51.70;;;;;;5055076;28;20041;-59
2022/06/03 03:01:17;;;;;;;1.02;0.90;;;20.70;51.50;;;;;;5055256;28;20071;-59
2022/06/03 03:04:14;;;;;;;1.17;1.02;;;20.70;51.70;;;;;;5055526;28;20059;-61
2022/06/03 03:07:11;;;;;;;1.73;1.10;;;20.70;51.50;;;;;;5056885;28;20036;-58
2022/06/03 03:09:55;;;;;;;1.25;1.05;;;20.70;51.50;;;;;;5055270;28;20064;-63
2022/06/03 03:12:38;;;;;;;0.95;0.95;;;20.70;51.60;;;;;;5056640;28;20048;-60
2022/06/03 03:15:38;;;;;;;1.70;1.20;;;20.70;51.60;;;;;;5056453;28;20044;-59
2022/06/03 03:18:31;;;;;;;1.98;0.95;;;20.70;51.40;;;;;;5055480;28;20040;-63
2022/06/03 03:21:18;;;;;;;1.33;0.90;;;20.70;51.50;;;;;;5055841;28;20041;-58
2022/06/03 03:23:44;;;;;;;1.10;1.00;;;20.70;51.50;;;;;;5055329;28;20040;-58
2022/06/03 03:26:28;;;;;;;0.90;0.90;;;20.70;51.50;;;;;;5051712;28;20090;-59
2022/06/03 03:29:00;;;;;;;1.30;1.20;;;20.70;51.40;;;;;;5055634;28;20408;-59
2022/06/03 03:31:28;;;;;;;2.03;1.00;;;20.70;51.40;;;;;;5056655;28;20090;-60
2022/06/03 03:34:06;;;;;;;1.10;1.00;;;20.70;51.40;;;;;;5055357;28;20067;-60
2022/06/03 03:37:03;;;;;;;2.65;1.23;;;20.70;51.40;;;;;;5054678;28;20057;-59
2022/06/03 03:39:50;;;;;;;0.80;0.80;;;20.70;51.50;;;;;;5053717;28;20052;-61
2022/06/03 03:42:32;;;;;;;1.23;1.00;;;20.70;51.60;;;;;;5054346;28;20048;-59
2022/06/03 03:45:20;;;;;;;1.38;0.90;;;20.70;51.40;;;;;;5040499;28;20029;-60
2022/06/03 03:48:35;;;;;;;1.85;1.00;;;20.70;51.30;;;;;;5055939;28;20044;-59
2022/06/03 03:51:26;;;;;;;1.08;0.98;;;20.70;51.40;;;;;;5056159;28;20052;-59
2022/06/03 03:54:16;;;;;;;0.98;0.90;;;20.70;51.50;;;;;;5043269;28;20067;-60
2022/06/03 03:57:14;;;;;;;2.13;0.80;;;20.60;51.50;;;;;;5055232;28;20059;-61
2022/06/03 04:00:04;;;;;;;1.08;0.93;;;20.70;51.40;;;;;;5036097;28;20142;-59
2022/06/03 04:02:48;;;;;;;1.98;0.70;;;20.60;51.40;;;;;;5053020;28;20528;-60
2022/06/03 04:05:59;;;;;;;1.10;0.90;;;20.70;51.40;;;;;;5052811;28;20120;-60
2022/06/03 04:08:31;;;;;;;1.85;0.85;;;20.70;51.40;;;;;;5033851;28;20167;-59
2022/06/03 04:11:21;;;;;;;0.95;0.90;;;20.60;51.40;;;;;;5054388;28;20078;-59
2022/06/03 04:14:17;;;;;;;2.85;1.20;;;20.70;51.30;;;;;;5054337;28;20505;-59
2022/06/03 04:17:04;;;;;;;1.30;0.90;;;20.60;51.30;;;;;;5056671;28;20032;-59
2022/06/03 04:19:51;;;;;;;0.95;0.90;;;20.60;51.30;;;;;;5055569;28;20048;-59
2022/06/03 04:22:41;;;;;;;0.93;0.93;;;20.60;51.30;;;;;;5054718;28;20041;-60
2022/06/03 04:25:26;;;;;;;1.48;1.00;;;20.60;51.10;;;;;;5055256;28;20037;-62
2022/06/03 04:28:19;;;;;;;1.00;1.00;;;20.60;51.10;;;;;;5055002;28;20041;-63
2022/06/03 04:31:36;;;;;;;1.95;1.10;;;20.60;51.10;;;;;;5055575;28;20048;-60
2022/06/03 04:34:19;;;;;;;1.25;1.00;;;20.60;51.10;;;;;;5052632;28;20065;-60
2022/06/03 04:37:11;;;;;;;1.30;0.90;;;20.60;51.20;;;;;;5054056;28;20519;-60
2022/06/03 04:40:02;;;;;;;0.82;0.82;;;20.60;51.10;;;;;;5052742;28;20041;-62
2022/06/03 04:42:59;;;;;;;2.53;1.00;;;20.60;51.10;;;;;;5051909;28;20119;-60
2022/06/03 04:45:54;;;;;;;1.10;1.00;;;20.60;51.10;;;;;;5053255;28;20048;-59
2022/06/03 04:48:59;;;;;;;0.90;0.90;;;20.60;51.20;;;;;;5051673;28;20043;-59
2022/06/03 04:51:43;;;;;;;1.52;0.93;;;20.60;51.10;;;;;;5053178;28;20051;-60
2022/06/03 04:54:46;;;;;;;1.85;0.90;;;20.60;51.20;;;;;;5051829;28;20044;-60
2022/06/03 04:57:42;;;;;;;1.70;1.00;;;20.60;51.20;;;;;;5053134;28;20132;-59
2022/06/03 05:00:31;;;;;;;0.90;0.90;;;20.60;51.10;;;;;;5051716;28;20086;-60
2022/06/03 05:03:34;;;;;;;1.23;0.98;;;20.60;51.20;;;;;;5051742;28;20102;-60
2022/06/03 05:06:12;;;;;;;0.95;0.80;;;20.60;51.10;;;;;;5051579;28;20045;-59
2022/06/03 05:09:02;;;;;;;1.25;0.75;;;20.60;51.20;;;;;;5054330;28;20040;-59
2022/06/03 05:11:58;;;;;;;1.15;1.05;;;20.60;51.30;;;;;;5053412;28;20041;-61
2022/06/03 05:15:13;;;;;;;1.75;0.90;;;20.60;51.30;;;;;;5053997;28;20336;-60
2022/06/03 05:18:13;;;;;;;1.00;0.90;;;20.60;51.20;;;;;;5054015;28;20048;-60
2022/06/03 05:21:10;;;;;;;1.45;0.90;;;20.60;51.20;;;;;;5052524;28;20041;-61
2022/06/03 05:24:13;;;;;;;0.80;0.80;;;20.60;51.20;;;;;;5054230;28;20052;-57
2022/06/03 05:27:07;;;;;;;1.27;0.90;;;20.60;51.20;;;;;;5031385;28;20048;-59
2022/06/03 05:29:44;;;;;;;2.50;0.90;;;20.60;51.20;;;;;;5053366;28;20171;-59
2022/06/03 05:32:52;;;;;;;1.20;1.10;;;20.60;51.10;;;;;;5055013;28;20083;-58
2022/06/03 05:35:40;;;;;;;0.88;0.85;;;20.60;51.00;;;;;;5054794;28;20037;-60
2022/06/03 05:38:26;;;;;;;1.20;0.93;;;20.60;51.10;;;;;;5055060;28;20089;-58
2022/06/03 05:40:55;;;;;;;1.45;1.00;;;20.60;51.20;;;;;;5047699;28;20076;-60
2022/06/03 05:43:29;;;;;;;1.00;0.90;;;20.60;51.30;;;;;;5051225;28;20045;-58
2022/06/03 05:46:11;;;;;;;1.20;0.98;;;20.60;51.50;;;;;;5052738;28;20043;-60
2022/06/03 05:48:46;;;;;;;2.95;1.05;;;20.70;51.70;;;;;;5053914;28;20055;-58
2022/06/03 05:51:43;;;;;;;0.95;0.80;;;20.70;51.70;;;;;;5055263;28;20044;-58
2022/06/03 05:54:21;;;;;;;1.08;0.95;;;20.70;52.00;;;;;;5016406;28;20080;-60
2022/06/03 05:56:58;;;;;;;2.20;1.15;;;20.70;52.10;;;;;;5056009;28;20044;-58
2022/06/03 05:59:41;;;;;;;1.77;1.20;;;20.70;52.20;;;;;;5058089;28;20041;-59
2022/06/03 06:02:29;;;;;;;1.67;0.93;;;20.70;52.10;;;;;;5056510;28;20088;-60
2022/06/03 06:05:19;;;;;;;1.77;0.90;;;20.70;52.00;;;;;;5057313;28;20392;-58
2022/06/03 06:08:08;;;;;;;2.77;1.23;;;20.70;52.20;;;;;;5058832;28;20092;-58
2022/06/03 06:10:51;;;;;;;2.88;0.98;;;20.70;52.30;;;;;;5057557;28;20041;-59
2022/06/03 06:13:56;;;;;;;2.70;0.90;;;20.70;52.40;;;;;;5058975;28;20043;-58
2022/06/03 06:16:30;;;;;;;4.05;1.30;;;20.70;52.50;;;;;;5058815;28;20048;-57
2022/06/03 06:19:04;;;;;;;3.42;1.25;;;20.70;52.50;;;;;;5058115;28;20040;-59
2022/06/03 06:21:59;;;;;;;1.48;1.05;;;20.80;52.30;;;;;;5057467;28;20045;-60
2022/06/03 06:24:44;;;;;;;1.95;1.10;;;20.70;52.20;;;;;;5056431;28;20127;-60
2022/06/03 06:27:27;;;;;;;2.55;1.42;;;20.70;52.30;;;;;;5052243;28;20044;-59
2022/06/03 06:30:18;;;;;;;2.42;1.10;;;20.80;52.40;;;;;;5037306;28;20060;-59
2022/06/03 06:32:53;;;;;;;1.67;0.93;;;20.80;52.50;;;;;;5040500;28;20681;-59
2022/06/03 06:35:37;;;;;;;3.25;1.60;;;20.80;52.50;;;;;;5052654;28;20056;-59
2022/06/03 06:38:08;;;;;;;3.67;1.40;;;20.80;52.50;;;;;;5053296;28;20388;-58
2022/06/03 06:40:46;;;;;;;;;;;20.70;52.50;;;;;;5056911;28;20128;-58
2022/06/03 06:43:43;;;;;;;2.17;1.25;;;20.80;52.50;;;;;;5055466;28;19932;-58
2022/06/03 06:46:35;;;;;;;4.43;1.33;;;20.70;52.50;;;;;;5054591;28;20048;-59
2022/06/03 06:49:16;;;;;;;3.63;1.42;;;20.80;52.60;;;;;;5021904;28;20056;-58
2022/06/03 06:51:54;;;;;;;2.08;1.15;;;20.80;52.50;;;;;;5056991;28;20044;-58
2022/06/03 06:54:51;;;;;;;2.13;1.23;;;20.80;52.50;;;;;;5054146;28;20055;-61
2022/06/03 06:57:33;;;;;;;4.18;1.48;;;20.80;52.40;;;;;;5056440;28;21084;-58
2022/06/03 07:00:02;;;;;;;2.72;1.48;;;20.80;52.40;;;;;;5054957;28;20033;-58
2022/06/03 07:02:36;;;;;;;2.70;1.42;;;20.80;52.40;;;;;;5051002;28;20075;-60
2022/06/03 07:05:18;;;;;;;2.90;1.20;;;20.80;52.40;;;;;;5055068;28;20044;-61
2022/06/03 07:07:53;;;;;;;3.38;1.30;;;20.80;52.40;;;;;;5055296;28;20041;-58
2022/06/03 07:10:25;;;;;;;3.10;1.45;;;20.80;52.50;;;;;;5054639;28;20044;-61
2022/06/03 07:13:03;;;;;;;2.28;1.20;;;20.80;52.60;;;;;;5054548;28;20036;-61
2022/06/03 07:16:01;;;;;;;2.25;1.20;;;20.80;52.60;;;;;;5055424;28;20040;-60
2022/06/03 07:21:33;;;;;;;4.60;1.30;;;20.80;52.70;;;;;;5038816;28;20055;-58
2022/06/03 07:24:14;;;;;;;1.95;1.30;;;20.80;52.90;;;;;;5055182;28;20079;-60
2022/06/03 07:26:46;;;;;;;;;;;20.80;53.10;;;;;;5056326;28;20087;-58
2022/06/03 07:29:17;;;;;;;2.47;1.15;;;20.80;53.30;;;;;;5036428;28;20081;-58
2022/06/03 07:31:47;;;;;;;2.85;1.10;;;20.80;53.20;;;;;;5054265;28;20040;-60
2022/06/03 07:34:36;;;;;;;2.47;1.37;;;20.80;53.20;;;;;;5055121;28;20084;-59
2022/06/03 07:37:17;;;;;;;2.63;1.40;;;20.80;53.20;;;;;;5053289;28;20305;-59
2022/06/03 07:40:25;;;;;;;2.22;1.42;;;20.80;53.20;;;;;;5043789;28;20037;-60
2022/06/03 07:43:09;;;;;;;3.03;1.30;;;20.80;53.20;;;;;;5050009;28;20519;-62
2022/06/03 07:45:59;;;;;;;2.58;1.35;;;20.80;53.30;;;;;;5045439;28;20043;-59
2022/06/03 07:48:28;;;;;;;1.83;1.38;;;20.80;53.40;;;;;;5055666;28;20432;-59
2022/06/03 07:51:04;;;;;;;1.50;1.30;;;20.80;53.60;;;;;;5055376;28;20139;-58
2022/06/03 07:53:52;;;;;;;1.40;1.30;;;20.90;54.10;;;;;;5053084;28;20037;-59
2022/06/03 07:56:23;;;;;;;4.95;1.65;;;20.90;54.30;;;;;;5054283;28;20592;-57
2022/06/03 07:58:52;;;;;;;;;;;20.80;54.20;;;;;;5054284;28;20044;-58
2022/06/03 08:01:27;;;;;;;2.58;1.40;;;20.90;54.40;;;;;;5053765;28;19948;-59
2022/06/03 08:03:53;;;;;;;1.50;1.40;;;20.90;54.30;;;;;;5054170;28;20040;-58
2022/06/03 08:06:26;;;;;;;1.67;1.35;;;20.90;54.30;;;;;;5053468;28;20036;-60
2022/06/03 08:11:42;;;;;;;1.95;1.50;;;20.90;54.30;;;;;;5055388;28;20078;-61
2022/06/03 08:14:08;;;;;;;2.45;1.20;;;20.90;54.50;;;;;;5052468;28;20134;-59
2022/06/03 08:16:36;;;;;;;2.22;1.30;;;20.90;55.10;;;;;;5054580;28;20631;-60
2022/06/03 08:19:21;;;;;;;5.20;1.40;;;20.90;54.40;;;;;;5053982;28;20072;-58
2022/06/03 08:21:59;;;;;;;4.35;1.40;;;20.90;54.30;;;;;;5053452;28;20040;-58
2022/06/03 08:24:54;;;;;;;2.17;1.30;;;20.90;54.30;;;;;;5055749;28;20188;-59
2022/06/03 08:27:25;;;;;;;2.80;1.55;;;20.90;54.80;;;;;;5051066;28;20056;-59
2022/06/03 08:29:58;;;;;;;1.33;1.23;;;20.90;54.10;;;;;;5055113;28;20053;-59
2022/06/03 08:32:37;;;;;;;1.67;1.17;;;20.90;54.10;;;;;;5054438;28;20057;-58
2022/06/03 08:35:13;;;;;;;3.30;1.60;;;21.00;54.20;;;;;;5055102;28;20128;-58
2022/06/03 08:38:06;;;;;;;2.60;1.45;;;21.00;54.20;;;;;;5054889;28;20492;-60
2022/06/03 08:40:41;;;;;;;1.58;1.08;;;21.00;54.20;;;;;;5057223;28;20040;-61
2022/06/03 08:43:28;;;;;;;2.63;1.38;;;21.00;54.30;;;;;;5034615;28;20044;-59
2022/06/03 08:46:14;;;;;;;2.42;1.40;;;21.00;54.20;;;;;;5054169;28;20083;-59
2022/06/03 08:48:43;;;;;;;3.70;1.50;;;21.00;54.20;;;;;;5036272;28;20087;-58
2022/06/03 08:51:21;;;;;;;1.63;1.38;;;21.00;54.20;;;;;;5053067;28;20392;-60
2022/06/03 08:54:01;;;;;;;2.58;1.38;;;21.00;54.20;;;;;;5052097;28;20044;-60
2022/06/03 08:56:33;;;;;;;2.03;1.33;;;21.00;54.20;;;;;;5053573;28;20419;-60
2022/06/03 08:59:05;;;;;;;2.65;1.52;;;21.00;54.20;;;;;;5051914;28;20123;-60
2022/06/03 09:02:04;;;;;;;2.13;1.38;;;21.00;54.10;;;;;;5054077;28;20045;-59
2022/06/03 09:04:46;;;;;;;2.45;1.40;;;21.00;54.00;;;;;;5052122;28;20072;-59
2022/06/03 09:07:34;;;;;;;3.20;1.30;;;21.00;54.00;;;;;;5053754;28;20460;-60
2022/06/03 09:10:16;;;;;;;2.08;1.10;;;21.00;54.10;;;;;;5053502;28;20041;-58
2022/06/03 09:12:51;;;;;;;2.88;1.45;;;21.00;54.20;;;;;;5054619;28;20060;-59
2022/06/03 09:15:23;;;;;;;1.77;1.38;;;21.00;54.20;;;;;;5054364;28;20596;-60
2022/06/03 09:18:05;;;;;;;1.42;1.20;;;21.00;54.20;;;;;;5052623;28;20076;-61
2022/06/03 09:20:42;;;;;;;1.52;1.30;;;21.00;54.20;;;;;;5053953;28;20324;-58
2022/06/03 09:23:11;;;;;;;2.33;1.38;;;21.00;54.20;;;;;;5056011;28;20114;-59
2022/06/03 09:25:50;;;;;;;1.48;1.35;;;21.00;54.20;;;;;;5058398;28;20481;-58
2022/06/03 09:28:24;;;;;;;1.85;1.40;;;21.00;54.20;;;;;;5055230;28;20071;-58
2022/06/03 09:30:51;;;;;;;3.35;1.20;;;21.00;54.20;;;;;;5057504;28;20048;-60
2022/06/03 09:33:20;;;;;;;1.42;1.20;;;21.00;54.30;;;;;;5044481;28;20065;-59
2022/06/03 09:35:49;;;;;;;1.33;1.23;;;21.00;54.20;;;;;;5037079;28;20045;-58
2022/06/03 09:38:18;;;;;;;1.77;1.40;;;21.10;54.30;;;;;;5036864;28;20049;-61
2022/06/03 09:40:46;;;;;;;2.53;1.30;;;21.10;54.30;;;;;;5004766;28;20156;-58
2022/06/03 09:43:21;;;;;;;4.05;1.38;;;21.10;54.30;;;;;;5030214;28;20093;-62
2022/06/03 09:45:49;;;;;;;1.85;1.20;;;21.10;54.30;;;;;;5030902;28;20437;-59
2022/06/03 09:48:21;;;;;;;2.72;1.25;;;21.00;54.10;;;;;;5019715;28;20068;-58
2022/06/03 09:50:52;;;;;;;2.05;1.40;;;21.10;54.00;;;;;;5035206;28;20045;-58
2022/06/03 09:53:25;;;;;;;2.33;1.45;;;21.00;53.90;;;;;;5033043;28;20094;-59
2022/06/03 09:55:55;;;;;;;3.53;1.45;;;21.10;53.90;;;;;;5018753;28;20045;-58
2022/06/03 09:58:30;;;;;;;3.72;1.52;;;21.10;53.80;;;;;;5030634;28;20041;-60
2022/06/03 10:00:58;;;;;;;3.08;1.40;;;21.00;53.70;;;;;;5038051;28;20039;-62
2022/06/03 10:03:25;;;;;;;2.17;1.30;;;21.00;53.60;;;;;;5019154;28;20096;-59
2022/06/03 10:05:55;;;;;;;1.70;1.45;;;21.00;53.50;;;;;;5037416;28;20585;-58
2022/06/03 10:08:25;;;;;;;3.25;1.42;;;21.00;54.20;;;;;;5037616;28;20036;-60
2022/06/03 10:13:39;;;;;;;4.57;1.40;;;21.00;53.40;;;;;;5036934;28;20445;-60
2022/06/03 10:16:07;;;;;;;3.20;1.50;;;21.00;53.30;;;;;;5037203;28;20533;-58
2022/06/03 10:18:39;;;;;;;2.63;1.55;;;21.00;53.20;;;;;;5035547;28;20049;-59
2022/06/03 10:21:10;;;;;;;1.38;1.20;;;21.00;53.10;;;;;;5035899;28;20068;-60
2022/06/03 10:23:41;;;;;;;2.28;1.33;;;21.00;53.00;;;;;;5037552;28;20037;-58
2022/06/03 10:26:07;;;;;;;2.83;1.60;;;21.00;52.90;;;;;;5036045;28;20053;-58
2022/06/03 10:28:35;;;;;;;2.63;1.40;;;21.00;52.90;;;;;;5035755;28;20501;-59
2022/06/03 10:31:05;;;;;;;1.88;1.38;;;21.00;52.80;;;;;;5039304;28;20033;-58
2022/06/03 10:33:31;;;;;;;1.73;1.43;;;21.00;52.80;;;;;;5033451;28;20150;-58
2022/06/03 10:35:59;;;;;;;4.53;1.35;;;21.00;52.70;;;;;;5055248;28;20045;-59
2022/06/03 10:38:28;;;;;;;3.35;1.48;;;21.00;52.70;;;;;;5038321;28;20041;-60
2022/06/03 10:40:54;;;;;;;2.35;1.50;;;21.00;52.60;;;;;;5055460;28;20098;-59
2022/06/03 10:43:34;;;;;;;2.05;1.13;;;21.00;52.60;;;;;;5051535;28;20036;-58
2022/06/03 10:46:18;;;;;;;2.15;1.42;;;21.00;52.80;;;;;;5049859;28;20040;-59
2022/06/03 10:48:46;;;;;;;2.08;1.40;;;21.00;52.40;;;;;;5056474;28;20095;-60
2022/06/03 10:51:14;;;;;;;3.03;1.33;;;21.00;52.50;;;;;;5054799;28;20517;-59
2022/06/03 11:01:59;;;;;;;1.80;1.20;;;21.00;52.20;;;;;;5053686;28;20048;-59
2022/06/03 11:04:37;;;;;;;1.90;1.50;;;21.00;52.10;;;;;;5055051;28;20045;-59
2022/06/03 11:07:25;;;;;;;2.05;1.58;;;21.00;52.10;;;;;;5054245;28;20045;-59
2022/06/03 11:09:58;;;;;;;2.35;1.20;;;21.00;52.10;;;;;;5051794;28;21424;-59
2022/06/03 11:12:26;;;;;;;2.47;1.40;;;21.00;52.10;;;;;;5051428;28;20041;-62
2022/06/03 11:14:52;;;;;;;2.13;1.50;;;21.00;52.10;;;;;;5053551;28;20472;-59
2022/06/03 11:17:24;;;;;;;1.67;1.10;;;21.00;52.10;;;;;;5054005;28;20115;-62
2022/06/03 11:19:56;;;;;;;1.60;1.50;;;21.00;52.00;;;;;;5050996;28;20044;-59
2022/06/03 11:22:39;;;;;;;3.97;1.42;;;21.00;52.00;;;;;;5053628;28;20045;-59
2022/06/03 11:25:13;;;;;;;1.63;1.30;;;21.00;51.90;;;;;;5054337;28;20532;-59
2022/06/03 11:27:50;;;;;;;2.50;1.40;;;21.00;51.90;;;;;;5057222;28;20036;-60
2022/06/03 11:30:33;;;;;;;1.90;1.48;;;21.00;51.80;;;;;;5054520;28;20481;-60
2022/06/03 11:33:09;;;;;;;1.50;1.40;;;21.00;51.70;;;;;;5056536;28;20041;-61
2022/06/03 11:35:42;;;;;;;1.77;1.40;;;21.00;51.70;;;;;;5053264;28;20036;-59
2022/06/03 11:38:12;;;;;;;1.50;1.40;;;21.00;51.70;;;;;;5053909;28;20033;-58
2022/06/03 11:40:43;;;;;;;2.35;1.23;;;21.00;51.60;;;;;;5055631;28;20040;-60
2022/06/03 11:43:12;;;;;;;;;;;21.00;51.60;;;;;;5054523;28;20102;-59
2022/06/03 11:46:00;;;;;;;2.08;1.20;;;21.00;51.50;;;;;;5051337;28;20035;-60
2022/06/03 11:48:30;;;;;;;1.75;1.30;;;21.00;51.70;;;;;;5052136;28;20163;-61
2022/06/03 11:50:58;;;;;;;1.67;1.50;;;21.00;51.60;;;;;;5043737;28;20462;-60
2022/06/03 11:53:28;;;;;;;2.25;1.20;;;21.00;51.50;;;;;;5053155;28;20041;-62
2022/06/03 11:55:55;;;;;;;3.42;1.60;;;21.00;52.10;;;;;;5051025;28;20123;-61
2022/06/03 11:58:38;;;;;;;1.33;1.23;;;21.00;51.50;;;;;;5052050;28;20041;-59
2022/06/03 12:01:12;;;;;;;2.40;1.20;;;21.00;51.50;;;;;;5055007;28;20069;-60
2022/06/03 12:04:07;;;;;;;2.45;1.20;;;21.00;51.60;;;;;;5054905;28;20025;-59
2022/06/03 12:06:42;;;;;;;3.42;1.40;;;21.00;51.60;;;;;;5033426;28;20052;-59
2022/06/03 12:09:22;;;;;;;2.42;1.20;;;21.00;51.70;;;;;;5043533;28;20611;-61
2022/06/03 12:15:41;;;;;;;1.50;1.40;;;21.00;51.60;;;;;;5052611;28;20055;-61
2022/06/03 12:18:07;;;;;;;2.10;1.20;;;21.00;51.80;;;;;;5053781;28;20032;-59
2022/06/03 12:20:47;;;;;;;2.97;1.40;;;21.00;51.60;;;;;;5055115;28;20071;-60
2022/06/03 12:23:12;;;;;;;2.08;1.10;;;21.00;51.40;;;;;;5055427;28;20045;-59
2022/06/03 12:25:41;;;;;;;1.85;1.23;;;21.00;51.20;;;;;;5054355;28;20440;-60
2022/06/03 12:28:37;;;;;;;2.50;1.20;;;21.00;51.00;;;;;;5055708;28;20053;-59
2022/06/03 12:31:06;;;;;;;2.25;1.50;;;21.00;50.70;;;;;;5054901;28;20041;-60
2022/06/03 12:33:45;;;;;;;2.17;1.30;;;21.00;50.70;;;;;;5056809;28;20056;-58
2022/06/03 12:36:32;;;;;;;1.27;1.10;;;21.00;50.60;;;;;;5053716;28;20071;-62
2022/06/03 12:39:09;;;;;;;1.50;1.40;;;21.00;50.60;;;;;;5053738;28;20164;-61
2022/06/03 12:41:57;;;;;;;3.55;1.35;;;21.00;50.60;;;;;;5054461;28;20039;-59
2022/06/03 12:44:41;;;;;;;1.40;1.30;;;21.00;50.50;;;;;;5053789;28;20076;-59
2022/06/03 12:47:42;;;;;;;1.70;1.30;;;21.00;50.50;;;;;;5054661;28;20041;-60
2022/06/03 12:50:08;;;;;;;2.72;1.30;;;21.00;50.50;;;;;;5055075;28;20112;-56
2022/06/03 12:52:37;;;;;;;1.80;1.52;;;21.00;50.60;;;;;;5052369;28;20129;-61
2022/06/03 12:55:12;;;;;;;1.60;1.30;;;21.00;50.60;;;;;;5053142;28;20041;-60
2022/06/03 12:57:55;;;;;;;1.63;1.23;;;21.00;50.60;;;;;;5052949;28;20571;-56
2022/06/03 13:00:21;;;;;;;1.48;1.33;;;21.00;50.60;;;;;;5053718;28;20048;-57
2022/06/03 13:02:56;;;;;;;1.80;1.20;;;21.00;50.70;;;;;;5051444;28;20126;-58
2022/06/03 13:05:33;;;;;;;1.10;1.10;;;21.00;50.70;;;;;;5052741;28;20041;-56
2022/06/03 13:08:03;;;;;;;1.55;1.40;;;21.00;50.70;;;;;;5053346;28;20083;-57
2022/06/03 13:10:50;;;;;;;1.23;1.05;;;21.10;50.80;;;;;;5037538;28;20135;-58
2022/06/03 13:13:33;;;;;;;2.00;1.10;;;21.00;50.80;;;;;;5052687;28;20041;-57
2022/06/03 13:16:17;;;;;;;7.28;1.45;;;21.10;51.00;;;;;;5051256;28;20044;-57
2022/06/03 13:18:46;;;;;;;1.58;1.25;;;21.10;51.00;;;;;;5052125;28;20067;-56
2022/06/03 13:21:16;;;;;;;3.03;1.27;;;21.10;51.00;;;;;;5052190;28;20238;-56
2022/06/03 13:23:42;;;;;;;1.88;1.23;;;21.10;51.00;;;;;;5053414;28;20045;-56
2022/06/03 13:26:23;;;;;;;1.27;1.17;;;21.10;51.10;;;;;;5053972;28;20501;-58
2022/06/03 13:28:57;;;;;;;2.25;1.13;;;21.10;51.10;;;;;;5058003;28;20040;-56
2022/06/03 13:31:41;;;;;;;6.72;2.72;;;21.10;51.00;;;;;;5042996;28;20041;-57
2022/06/03 13:34:12;;;;;;;7.35;2.60;;;21.10;51.10;;;;;;5053003;28;20057;-57
2022/06/03 13:36:50;;;;;;;14.77;6.57;;;21.10;52.00;;;;;;5054438;28;20476;-56
2022/06/03 13:39:24;;;;;;;9.27;3.90;;;21.10;51.40;;;;;;5054310;28;20384;-56
2022/06/03 13:45:02;;;;;;;12.88;4.38;;;21.20;51.80;;;;;;5052318;28;20566;-61
2022/06/03 13:47:35;;;;;;;12.85;5.50;;;21.20;52.00;;;;;;5052521;28;20114;-56
2022/06/03 13:50:14;;;;;;;14.48;5.22;;;21.20;52.10;;;;;;5054206;28;20381;-58
2022/06/03 13:52:40;;;;;;;16.90;5.78;;;21.20;53.00;;;;;;5056969;28;20040;-56
2022/06/03 13:55:44;;;;;;;15.40;5.13;;;21.30;52.50;;;;;;5053090;28;20098;-58
2022/06/03 13:58:18;;;;;;;11.60;4.80;;;21.30;52.50;;;;;;5051734;28;20217;-57
2022/06/03 14:00:50;;;;;;;15.02;4.95;;;21.30;52.50;;;;;;5049314;28;20557;-58
2022/06/03 14:03:24;;;;;;;11.52;4.30;;;21.30;52.30;;;;;;5051410;28;21700;-57
2022/06/03 14:06:08;;;;;;;10.15;4.40;;;21.30;52.20;;;;;;5050212;28;20041;-58
2022/06/03 14:08:46;;;;;;;11.10;4.05;;;21.30;52.10;;;;;;5054835;28;20078;-57
2022/06/03 14:11:35;;;;;;;8.65;4.00;;;21.30;52.10;;;;;;5051561;28;20049;-57
2022/06/03 14:14:24;;;;;;;7.07;3.42;;;21.30;52.00;;;;;;5026532;28;20049;-59
2022/06/03 14:16:53;;;;;;;5.68;2.95;;;21.30;51.90;;;;;;5036805;28;20041;-60
2022/06/03 14:19:45;;;;;;;7.57;2.95;;;21.30;51.90;;;;;;5027104;28;20096;-62
2022/06/03 14:22:58;;;;;;;10.45;2.88;;;21.40;51.80;;;;;;5053526;28;20040;-58
2022/06/03 14:25:57;;;;;;;5.63;2.83;;;21.40;51.70;;;;;;5054488;28;20571;-58
2022/06/03 14:28:40;;;;;;;7.35;2.60;;;21.30;51.90;;;;;;5036801;28;20455;-63